Terminal Aerodrome Forecast
Issued by NWS

Home | Current Version | Previous Version | Text Only | Print | Product List | Glossary On
Versions: 1 2 3 4 5 6 7 8 9 10 11 12
000
FTUS41 KPHI 032321
TAFMIV
TAF
KMIV 032321Z 0400/0424 22004KT P6SM FEW080
     FM040400 23004KT P6SM BKN080
     FM040800 25004KT 6SM BR SCT080
     FM041400 25008G16KT P6SM SCT050 PROB30 0421/0424 5SM TSRA BR
      OVC025CB=

USA.gov is the U.S. government's official web portal to all federal, state and local government web resources and services.